Attleboro, Massachusetts
Current Conditions -  °F | °C
As of 6:55 PM on Tuesday 25 Nov 2014 (Local Time) from KSFZ Reporting Station
Clear Clear  
Wind Chill: 46°   Ceiling: Unl
Heat Index: 48°   Visibility: 10mi
Dew Point: 21°   Wind: 6mph
Humidity: 34%   Direction: 250°WSW
Pressure: 30.01"   Gusts: NA
Location:  41.95°N, 71.28°W
Report Text: KSFZ 252355Z 25005KT 10SM CLR 09/M06 A3001 RMK AO1 10150 20090 401700090 52030
Loading
Personal Weather Stations






























Interactive Weather Map New forecast layout! Learn more

10-Day Weather Forecast

Advertisements
Track Severe Weather on mobile